עמוד ראשי
METAR-TAF:

METAR-TAF

שדות תעופה :

סן חוסה, קוסטה ריקה

קו רוחב: 10-00N, קו אורך: 084-13W, גובה: 920מטר

תצפית מזג אוויר נוכחית

הדו"ח נערך לפני 47דקות, בשעה 06:00 UTC
רוח 6קשר מכיוון מזרח, משתנה בין צפון/צפון-מזרח ו מזרח/דרום-מזרח
טמפרטורת 22 צלסיוס
לחות 83%
לחץ 1017 hPa
ראות 10 קילומטר או יותר
מעט עננים בגובה 3500רגל
מעונן בגובה 7000רגל
גשם קל,

METAR: MROC 200600Z 08006KT 030V120 9999 -RA FEW035 OVC070 22/19 A3003 NOSIG

זמן: 00:47 (06:47 UTC)

תחזית

הדו"ח נערך לפני 57דקות, בשעה 05:50 UTC
תחזית בתוקף מ 20 ב 06 UTC עד 21 ב 06 UTC
רוח 8קשר מכיוון מזרח
ראות 10 קילומטר או יותר
עננים פזורים בגובה 3000רגל
זמנית מ -
20 ב 14 UTC עד 20 ב 18 UTC
גשם
זמנית מ -
20 ב 19 UTC עד 20 ב 23 UTC
רוח 6קשר מכיוון מערב/דרום-מערב
מעט עננים בגובה 1500רגל , קומולוס מיגדלי.
סופת רעמים, גשם,

TAF: MROC 200550Z 2006/2106 09008KT 9999 SCT030 TX29/2020Z TN20/2011Z TEMPO 2014/2018 RA TEMPO 2019/2023 25006KT TSRA FEW015TCU

תצפיות ותחזיות מזג אוויר לגבי יותר מ- 4,000 שדות תעופה ברחבי העולם. דוחות METAR ו- TAF.

התחנות הזמינות מסומנות בנקודות צהובות ואדומות על גבי המפה.

העבר את העכבר לנקודה הצבעונית על מנת לראות את שם התחנה.

לאחר מכן, לחץ כדי לראות את תוכן ואת תחזיות מזג האוויר.

כדי לשנות את המפה: לחץ על הכפתורים הירוקים עם הפלוס השחור כדי להתקרב; על הכפתור הירוק עם המקף כדי להתרחק; או בחיצים הירוקים למפות סמוכות.


METAR-TAF: